sensor_id;sensor_type;location;lat;lon;timestamp;P1;durP1;ratioP1;P2;durP2;ratioP2
3547;SDS011;1788;49.400;11.092;2024-03-08T00:01:01;25.23;;;14.90;;
3547;SDS011;1788;49.400;11.092;2024-03-08T00:03:28;27.17;;;15.47;;
3547;SDS011;1788;49.400;11.092;2024-03-08T00:05:55;31.63;;;16.87;;
3547;SDS011;1788;49.400;11.092;2024-03-08T00:08:22;30.07;;;15.50;;
3547;SDS011;1788;49.400;11.092;2024-03-08T00:10:48;28.77;;;14.80;;
3547;SDS011;1788;49.400;11.092;2024-03-08T00:13:15;37.63;;;18.00;;
3547;SDS011;1788;49.400;11.092;2024-03-08T00:15:42;35.57;;;17.10;;
3547;SDS011;1788;49.400;11.092;2024-03-08T00:18:09;37.00;;;17.93;;
3547;SDS011;1788;49.400;11.092;2024-03-08T00:20:37;35.10;;;15.27;;
3547;SDS011;1788;49.400;11.092;2024-03-08T00:23:03;27.43;;;14.23;;
3547;SDS011;1788;49.400;11.092;2024-03-08T00:25:30;33.37;;;15.90;;
3547;SDS011;1788;49.400;11.092;2024-03-08T00:27:57;25.53;;;12.73;;
3547;SDS011;1788;49.400;11.092;2024-03-08T00:30:24;30.97;;;15.90;;
3547;SDS011;1788;49.400;11.092;2024-03-08T00:32:50;28.87;;;16.80;;
3547;SDS011;1788;49.400;11.092;2024-03-08T00:35:17;29.90;;;14.23;;
3547;SDS011;1788;49.400;11.092;2024-03-08T00:37:44;26.43;;;14.90;;
3547;SDS011;1788;49.400;11.092;2024-03-08T00:40:11;33.57;;;17.90;;
3547;SDS011;1788;49.400;11.092;2024-03-08T00:42:38;35.63;;;16.47;;
3547;SDS011;1788;49.400;11.092;2024-03-08T00:45:05;30.30;;;15.23;;
3547;SDS011;1788;49.400;11.092;2024-03-08T00:47:32;26.13;;;14.67;;
3547;SDS011;1788;49.400;11.092;2024-03-08T00:49:59;33.30;;;16.43;;
3547;SDS011;1788;49.400;11.092;2024-03-08T00:52:25;27.60;;;16.00;;
3547;SDS011;1788;49.400;11.092;2024-03-08T00:54:52;30.30;;;16.87;;
3547;SDS011;1788;49.400;11.092;2024-03-08T00:57:19;34.13;;;16.90;;
3547;SDS011;1788;49.400;11.092;2024-03-08T00:59:47;29.70;;;16.33;;
3547;SDS011;1788;49.400;11.092;2024-03-08T01:02:13;36.50;;;17.00;;
3547;SDS011;1788;49.400;11.092;2024-03-08T01:04:40;34.50;;;16.83;;
3547;SDS011;1788;49.400;11.092;2024-03-08T01:07:07;30.43;;;16.60;;
3547;SDS011;1788;49.400;11.092;2024-03-08T01:09:33;29.07;;;15.43;;
3547;SDS011;1788;49.400;11.092;2024-03-08T01:12:00;32.80;;;19.00;;
3547;SDS011;1788;49.400;11.092;2024-03-08T01:14:27;38.20;;;18.80;;
3547;SDS011;1788;49.400;11.092;2024-03-08T01:16:54;31.83;;;16.47;;
3547;SDS011;1788;49.400;11.092;2024-03-08T01:19:21;28.03;;;15.23;;
3547;SDS011;1788;49.400;11.092;2024-03-08T01:21:48;31.83;;;15.77;;
3547;SDS011;1788;49.400;11.092;2024-03-08T01:24:14;31.00;;;15.27;;
3547;SDS011;1788;49.400;11.092;2024-03-08T01:26:41;32.90;;;16.47;;
3547;SDS011;1788;49.400;11.092;2024-03-08T01:29:08;47.67;;;19.63;;
3547;SDS011;1788;49.400;11.092;2024-03-08T01:31:34;39.87;;;19.67;;
3547;SDS011;1788;49.400;11.092;2024-03-08T01:34:02;34.10;;;15.47;;
3547;SDS011;1788;49.400;11.092;2024-03-08T01:36:28;29.23;;;15.47;;
3547;SDS011;1788;49.400;11.092;2024-03-08T01:38:55;29.93;;;16.30;;
3547;SDS011;1788;49.400;11.092;2024-03-08T01:41:22;55.63;;;24.50;;
3547;SDS011;1788;49.400;11.092;2024-03-08T01:43:48;45.00;;;21.00;;
3547;SDS011;1788;49.400;11.092;2024-03-08T01:46:15;31.43;;;16.70;;
3547;SDS011;1788;49.400;11.092;2024-03-08T01:48:42;34.20;;;17.70;;
3547;SDS011;1788;49.400;11.092;2024-03-08T01:51:09;32.03;;;15.93;;
3547;SDS011;1788;49.400;11.092;2024-03-08T01:53:35;29.73;;;16.33;;
3547;SDS011;1788;49.400;11.092;2024-03-08T01:56:02;31.00;;;14.43;;
3547;SDS011;1788;49.400;11.092;2024-03-08T01:58:29;25.53;;;14.37;;
3547;SDS011;1788;49.400;11.092;2024-03-08T02:03:22;29.60;;;14.83;;
3547;SDS011;1788;49.400;11.092;2024-03-08T02:05:49;29.50;;;15.37;;
3547;SDS011;1788;49.400;11.092;2024-03-08T02:08:15;35.30;;;17.07;;
3547;SDS011;1788;49.400;11.092;2024-03-08T02:13:09;38.17;;;18.27;;
3547;SDS011;1788;49.400;11.092;2024-03-08T02:18:02;38.20;;;19.80;;
3547;SDS011;1788;49.400;11.092;2024-03-08T02:20:29;44.33;;;20.50;;
3547;SDS011;1788;49.400;11.092;2024-03-08T02:22:56;34.10;;;17.93;;
3547;SDS011;1788;49.400;11.092;2024-03-08T02:25:23;43.17;;;19.57;;
3547;SDS011;1788;49.400;11.092;2024-03-08T02:27:50;37.40;;;18.37;;
3547;SDS011;1788;49.400;11.092;2024-03-08T02:30:17;41.40;;;19.83;;
3547;SDS011;1788;49.400;11.092;2024-03-08T02:32:44;39.93;;;19.53;;
3547;SDS011;1788;49.400;11.092;2024-03-08T02:35:11;31.90;;;15.67;;
3547;SDS011;1788;49.400;11.092;2024-03-08T02:37:37;36.40;;;16.77;;
3547;SDS011;1788;49.400;11.092;2024-03-08T02:40:04;30.57;;;15.80;;
3547;SDS011;1788;49.400;11.092;2024-03-08T02:42:31;38.90;;;19.33;;
3547;SDS011;1788;49.400;11.092;2024-03-08T02:44:57;34.57;;;17.77;;
3547;SDS011;1788;49.400;11.092;2024-03-08T02:47:24;36.20;;;17.27;;
3547;SDS011;1788;49.400;11.092;2024-03-08T02:49:51;33.07;;;17.30;;
3547;SDS011;1788;49.400;11.092;2024-03-08T02:52:17;35.67;;;16.53;;
3547;SDS011;1788;49.400;11.092;2024-03-08T02:54:45;28.67;;;15.83;;
3547;SDS011;1788;49.400;11.092;2024-03-08T02:57:11;27.10;;;14.50;;
3547;SDS011;1788;49.400;11.092;2024-03-08T02:59:38;29.63;;;13.87;;
3547;SDS011;1788;49.400;11.092;2024-03-08T03:02:05;26.03;;;13.63;;
3547;SDS011;1788;49.400;11.092;2024-03-08T03:04:32;26.20;;;14.60;;
3547;SDS011;1788;49.400;11.092;2024-03-08T03:06:58;36.43;;;16.93;;
3547;SDS011;1788;49.400;11.092;2024-03-08T03:09:25;26.97;;;14.73;;
3547;SDS011;1788;49.400;11.092;2024-03-08T03:11:53;25.07;;;13.53;;
3547;SDS011;1788;49.400;11.092;2024-03-08T03:14:19;28.37;;;14.43;;
3547;SDS011;1788;49.400;11.092;2024-03-08T03:16:46;30.73;;;14.97;;
3547;SDS011;1788;49.400;11.092;2024-03-08T03:19:13;37.93;;;18.17;;
3547;SDS011;1788;49.400;11.092;2024-03-08T03:21:40;54.90;;;23.53;;
3547;SDS011;1788;49.400;11.092;2024-03-08T03:24:07;33.37;;;19.33;;
3547;SDS011;1788;49.400;11.092;2024-03-08T03:26:34;33.10;;;16.60;;
3547;SDS011;1788;49.400;11.092;2024-03-08T03:29:00;33.37;;;13.90;;
3547;SDS011;1788;49.400;11.092;2024-03-08T03:31:27;26.87;;;14.00;;
3547;SDS011;1788;49.400;11.092;2024-03-08T03:33:54;32.10;;;15.03;;
3547;SDS011;1788;49.400;11.092;2024-03-08T03:36:21;27.43;;;13.70;;
3547;SDS011;1788;49.400;11.092;2024-03-08T03:38:48;27.63;;;15.30;;
3547;SDS011;1788;49.400;11.092;2024-03-08T03:41:15;26.73;;;14.83;;
3547;SDS011;1788;49.400;11.092;2024-03-08T03:43:42;26.77;;;13.93;;
3547;SDS011;1788;49.400;11.092;2024-03-08T03:46:09;28.70;;;15.00;;
3547;SDS011;1788;49.400;11.092;2024-03-08T03:48:35;29.60;;;15.27;;
3547;SDS011;1788;49.400;11.092;2024-03-08T03:51:02;32.80;;;15.00;;
3547;SDS011;1788;49.400;11.092;2024-03-08T03:53:29;29.73;;;14.23;;
3547;SDS011;1788;49.400;11.092;2024-03-08T03:55:55;42.20;;;19.97;;
3547;SDS011;1788;49.400;11.092;2024-03-08T03:58:22;48.53;;;21.20;;
3547;SDS011;1788;49.400;11.092;2024-03-08T04:00:48;33.40;;;15.93;;
3547;SDS011;1788;49.400;11.092;2024-03-08T04:03:15;36.70;;;17.10;;
3547;SDS011;1788;49.400;11.092;2024-03-08T04:05:42;26.97;;;14.93;;
3547;SDS011;1788;49.400;11.092;2024-03-08T04:08:08;28.60;;;15.07;;
3547;SDS011;1788;49.400;11.092;2024-03-08T04:10:35;31.93;;;15.70;;
3547;SDS011;1788;49.400;11.092;2024-03-08T04:13:01;34.00;;;18.77;;
3547;SDS011;1788;49.400;11.092;2024-03-08T04:15:28;26.67;;;15.83;;
3547;SDS011;1788;49.400;11.092;2024-03-08T04:17:55;29.97;;;16.13;;
3547;SDS011;1788;49.400;11.092;2024-03-08T04:20:21;33.40;;;17.17;;
3547;SDS011;1788;49.400;11.092;2024-03-08T04:22:49;28.40;;;15.33;;
3547;SDS011;1788;49.400;11.092;2024-03-08T04:25:15;31.50;;;15.40;;
3547;SDS011;1788;49.400;11.092;2024-03-08T04:27:43;28.83;;;15.63;;
3547;SDS011;1788;49.400;11.092;2024-03-08T04:30:09;32.10;;;16.87;;
3547;SDS011;1788;49.400;11.092;2024-03-08T04:32:37;31.60;;;15.67;;
3547;SDS011;1788;49.400;11.092;2024-03-08T04:35:03;31.20;;;16.23;;
3547;SDS011;1788;49.400;11.092;2024-03-08T04:37:31;34.30;;;16.40;;
3547;SDS011;1788;49.400;11.092;2024-03-08T04:39:58;28.47;;;14.83;;
3547;SDS011;1788;49.400;11.092;2024-03-08T04:42:25;26.57;;;14.67;;
3547;SDS011;1788;49.400;11.092;2024-03-08T04:44:51;31.13;;;16.77;;
3547;SDS011;1788;49.400;11.092;2024-03-08T04:47:19;29.57;;;17.03;;
3547;SDS011;1788;49.400;11.092;2024-03-08T04:49:45;35.17;;;16.53;;
3547;SDS011;1788;49.400;11.092;2024-03-08T04:52:12;46.30;;;19.87;;
3547;SDS011;1788;49.400;11.092;2024-03-08T04:54:39;59.93;;;24.23;;
3547;SDS011;1788;49.400;11.092;2024-03-08T04:57:05;52.70;;;24.37;;
3547;SDS011;1788;49.400;11.092;2024-03-08T04:59:32;58.93;;;26.53;;
3547;SDS011;1788;49.400;11.092;2024-03-08T05:01:58;59.30;;;27.63;;
3547;SDS011;1788;49.400;11.092;2024-03-08T05:04:25;61.37;;;27.87;;
3547;SDS011;1788;49.400;11.092;2024-03-08T05:06:53;76.53;;;34.63;;
3547;SDS011;1788;49.400;11.092;2024-03-08T05:09:20;49.83;;;22.77;;
3547;SDS011;1788;49.400;11.092;2024-03-08T05:11:47;52.07;;;23.70;;
3547;SDS011;1788;49.400;11.092;2024-03-08T05:14:14;35.47;;;17.97;;
3547;SDS011;1788;49.400;11.092;2024-03-08T05:16:41;28.30;;;15.53;;
3547;SDS011;1788;49.400;11.092;2024-03-08T05:19:07;33.97;;;16.87;;
3547;SDS011;1788;49.400;11.092;2024-03-08T05:21:34;36.23;;;17.20;;
3547;SDS011;1788;49.400;11.092;2024-03-08T05:24:00;37.70;;;20.13;;
3547;SDS011;1788;49.400;11.092;2024-03-08T05:26:28;49.07;;;24.13;;
3547;SDS011;1788;49.400;11.092;2024-03-08T05:28:54;45.47;;;22.87;;
3547;SDS011;1788;49.400;11.092;2024-03-08T05:31:22;38.53;;;18.57;;
3547;SDS011;1788;49.400;11.092;2024-03-08T05:33:49;36.13;;;17.80;;
3547;SDS011;1788;49.400;11.092;2024-03-08T05:36:15;33.53;;;17.57;;
3547;SDS011;1788;49.400;11.092;2024-03-08T05:38:42;34.90;;;17.60;;
3547;SDS011;1788;49.400;11.092;2024-03-08T05:41:09;34.40;;;16.07;;
3547;SDS011;1788;49.400;11.092;2024-03-08T05:43:35;30.77;;;17.17;;
3547;SDS011;1788;49.400;11.092;2024-03-08T05:46:01;36.17;;;16.27;;
3547;SDS011;1788;49.400;11.092;2024-03-08T05:48:28;31.87;;;16.70;;
3547;SDS011;1788;49.400;11.092;2024-03-08T05:50:55;34.90;;;16.90;;
3547;SDS011;1788;49.400;11.092;2024-03-08T05:53:22;36.00;;;16.87;;
3547;SDS011;1788;49.400;11.092;2024-03-08T05:55:49;33.13;;;15.90;;
3547;SDS011;1788;49.400;11.092;2024-03-08T05:58:16;36.77;;;17.50;;
3547;SDS011;1788;49.400;11.092;2024-03-08T06:00:43;29.93;;;14.90;;
3547;SDS011;1788;49.400;11.092;2024-03-08T06:03:10;32.07;;;15.93;;
3547;SDS011;1788;49.400;11.092;2024-03-08T06:05:37;36.40;;;17.47;;
3547;SDS011;1788;49.400;11.092;2024-03-08T06:08:03;29.17;;;16.73;;
3547;SDS011;1788;49.400;11.092;2024-03-08T06:10:30;35.73;;;16.80;;
3547;SDS011;1788;49.400;11.092;2024-03-08T06:12:56;28.80;;;15.80;;
3547;SDS011;1788;49.400;11.092;2024-03-08T06:15:24;40.67;;;19.43;;
3547;SDS011;1788;49.400;11.092;2024-03-08T06:17:50;33.33;;;17.83;;
3547;SDS011;1788;49.400;11.092;2024-03-08T06:20:18;35.23;;;17.87;;
3547;SDS011;1788;49.400;11.092;2024-03-08T06:22:44;32.33;;;16.63;;
3547;SDS011;1788;49.400;11.092;2024-03-08T06:25:12;38.10;;;17.60;;
3547;SDS011;1788;49.400;11.092;2024-03-08T06:27:40;37.57;;;17.50;;
3547;SDS011;1788;49.400;11.092;2024-03-08T06:30:06;38.77;;;18.30;;
3547;SDS011;1788;49.400;11.092;2024-03-08T06:32:33;35.87;;;18.50;;
3547;SDS011;1788;49.400;11.092;2024-03-08T06:35:01;35.87;;;16.87;;
3547;SDS011;1788;49.400;11.092;2024-03-08T06:37:27;36.07;;;18.73;;
3547;SDS011;1788;49.400;11.092;2024-03-08T06:39:53;34.67;;;19.20;;
3547;SDS011;1788;49.400;11.092;2024-03-08T06:42:20;43.63;;;19.83;;
3547;SDS011;1788;49.400;11.092;2024-03-08T06:44:47;30.97;;;16.57;;
3547;SDS011;1788;49.400;11.092;2024-03-08T06:47:15;35.77;;;17.53;;
3547;SDS011;1788;49.400;11.092;2024-03-08T06:49:41;31.17;;;17.63;;
3547;SDS011;1788;49.400;11.092;2024-03-08T06:52:07;36.93;;;17.40;;
3547;SDS011;1788;49.400;11.092;2024-03-08T06:54:34;32.23;;;17.00;;
3547;SDS011;1788;49.400;11.092;2024-03-08T06:57:02;33.10;;;19.13;;
3547;SDS011;1788;49.400;11.092;2024-03-08T06:59:28;36.37;;;18.73;;
3547;SDS011;1788;49.400;11.092;2024-03-08T07:01:55;39.50;;;19.17;;
3547;SDS011;1788;49.400;11.092;2024-03-08T07:04:22;30.43;;;16.77;;
3547;SDS011;1788;49.400;11.092;2024-03-08T07:06:49;35.90;;;19.03;;
3547;SDS011;1788;49.400;11.092;2024-03-08T07:09:16;39.63;;;19.27;;
3547;SDS011;1788;49.400;11.092;2024-03-08T07:11:43;39.57;;;19.50;;
3547;SDS011;1788;49.400;11.092;2024-03-08T07:14:10;42.33;;;19.23;;
3547;SDS011;1788;49.400;11.092;2024-03-08T07:16:36;41.30;;;19.80;;
3547;SDS011;1788;49.400;11.092;2024-03-08T07:19:03;35.73;;;19.30;;
3547;SDS011;1788;49.400;11.092;2024-03-08T07:21:30;44.60;;;20.00;;
3547;SDS011;1788;49.400;11.092;2024-03-08T07:23:57;37.00;;;18.93;;
3547;SDS011;1788;49.400;11.092;2024-03-08T07:26:24;35.20;;;19.03;;
3547;SDS011;1788;49.400;11.092;2024-03-08T07:28:50;36.27;;;18.37;;
3547;SDS011;1788;49.400;11.092;2024-03-08T07:31:17;41.30;;;18.60;;
3547;SDS011;1788;49.400;11.092;2024-03-08T07:33:43;31.97;;;16.37;;
3547;SDS011;1788;49.400;11.092;2024-03-08T07:36:10;35.47;;;17.13;;
3547;SDS011;1788;49.400;11.092;2024-03-08T07:38:37;39.87;;;19.27;;
3547;SDS011;1788;49.400;11.092;2024-03-08T07:41:03;36.37;;;19.17;;
3547;SDS011;1788;49.400;11.092;2024-03-08T07:43:30;37.50;;;18.47;;
3547;SDS011;1788;49.400;11.092;2024-03-08T07:45:58;35.70;;;17.80;;
3547;SDS011;1788;49.400;11.092;2024-03-08T07:48:25;32.80;;;17.03;;
3547;SDS011;1788;49.400;11.092;2024-03-08T07:50:52;36.60;;;18.23;;
3547;SDS011;1788;49.400;11.092;2024-03-08T07:53:18;35.27;;;16.93;;
3547;SDS011;1788;49.400;11.092;2024-03-08T07:55:45;35.20;;;16.63;;
3547;SDS011;1788;49.400;11.092;2024-03-08T07:58:12;34.50;;;17.90;;
3547;SDS011;1788;49.400;11.092;2024-03-08T08:00:38;34.40;;;17.67;;
3547;SDS011;1788;49.400;11.092;2024-03-08T08:03:05;34.37;;;16.73;;
3547;SDS011;1788;49.400;11.092;2024-03-08T08:05:32;36.00;;;16.97;;
3547;SDS011;1788;49.400;11.092;2024-03-08T08:07:59;29.93;;;15.93;;
3547;SDS011;1788;49.400;11.092;2024-03-08T08:10:25;30.83;;;15.37;;
3547;SDS011;1788;49.400;11.092;2024-03-08T08:12:52;31.07;;;15.37;;
3547;SDS011;1788;49.400;11.092;2024-03-08T08:15:19;31.30;;;16.87;;
3547;SDS011;1788;49.400;11.092;2024-03-08T08:17:45;28.70;;;15.60;;
3547;SDS011;1788;49.400;11.092;2024-03-08T08:20:12;31.60;;;14.87;;
3547;SDS011;1788;49.400;11.092;2024-03-08T08:22:39;28.93;;;15.03;;
3547;SDS011;1788;49.400;11.092;2024-03-08T08:25:06;33.03;;;16.33;;
3547;SDS011;1788;49.400;11.092;2024-03-08T08:27:32;31.07;;;15.50;;
3547;SDS011;1788;49.400;11.092;2024-03-08T08:30:00;25.07;;;13.80;;
3547;SDS011;1788;49.400;11.092;2024-03-08T08:32:27;25.33;;;14.87;;
3547;SDS011;1788;49.400;11.092;2024-03-08T08:34:54;28.07;;;14.93;;
3547;SDS011;1788;49.400;11.092;2024-03-08T08:37:21;25.20;;;15.67;;
3547;SDS011;1788;49.400;11.092;2024-03-08T08:39:47;29.37;;;15.17;;
3547;SDS011;1788;49.400;11.092;2024-03-08T08:42:15;34.30;;;14.87;;
3547;SDS011;1788;49.400;11.092;2024-03-08T08:44:42;28.80;;;13.90;;
3547;SDS011;1788;49.400;11.092;2024-03-08T08:47:09;22.93;;;13.23;;
3547;SDS011;1788;49.400;11.092;2024-03-08T08:49:35;30.10;;;15.00;;
3547;SDS011;1788;49.400;11.092;2024-03-08T08:52:02;25.03;;;12.90;;
3547;SDS011;1788;49.400;11.092;2024-03-08T08:54:29;24.10;;;13.03;;
3547;SDS011;1788;49.400;11.092;2024-03-08T08:56:56;33.33;;;14.93;;
3547;SDS011;1788;49.400;11.092;2024-03-08T08:59:24;26.30;;;13.73;;
3547;SDS011;1788;49.400;11.092;2024-03-08T09:01:51;23.37;;;12.23;;
3547;SDS011;1788;49.400;11.092;2024-03-08T09:04:18;26.30;;;13.40;;
3547;SDS011;1788;49.400;11.092;2024-03-08T09:06:44;23.30;;;12.93;;
3547;SDS011;1788;49.400;11.092;2024-03-08T09:09:12;23.17;;;12.97;;
3547;SDS011;1788;49.400;11.092;2024-03-08T09:11:39;25.30;;;11.77;;
3547;SDS011;1788;49.400;11.092;2024-03-08T09:14:06;28.47;;;13.40;;
3547;SDS011;1788;49.400;11.092;2024-03-08T09:16:32;24.40;;;13.90;;
3547;SDS011;1788;49.400;11.092;2024-03-08T09:18:59;23.47;;;13.17;;
3547;SDS011;1788;49.400;11.092;2024-03-08T09:21:26;23.13;;;13.60;;
3547;SDS011;1788;49.400;11.092;2024-03-08T09:23:52;21.60;;;12.63;;
3547;SDS011;1788;49.400;11.092;2024-03-08T09:26:19;25.10;;;13.17;;
3547;SDS011;1788;49.400;11.092;2024-03-08T09:28:45;28.37;;;13.27;;
3547;SDS011;1788;49.400;11.092;2024-03-08T09:31:12;24.63;;;12.37;;
3547;SDS011;1788;49.400;11.092;2024-03-08T09:33:39;24.63;;;12.57;;
3547;SDS011;1788;49.400;11.092;2024-03-08T09:36:06;25.73;;;13.17;;
3547;SDS011;1788;49.400;11.092;2024-03-08T09:38:32;24.93;;;13.77;;
3547;SDS011;1788;49.400;11.092;2024-03-08T09:40:58;25.77;;;12.80;;
3547;SDS011;1788;49.400;11.092;2024-03-08T09:43:25;23.17;;;12.70;;
3547;SDS011;1788;49.400;11.092;2024-03-08T09:45:52;23.03;;;12.63;;
3547;SDS011;1788;49.400;11.092;2024-03-08T09:48:19;22.07;;;12.13;;
3547;SDS011;1788;49.400;11.092;2024-03-08T09:50:47;20.20;;;11.53;;
3547;SDS011;1788;49.400;11.092;2024-03-08T09:53:13;20.60;;;12.03;;
3547;SDS011;1788;49.400;11.092;2024-03-08T09:55:41;21.73;;;11.37;;
3547;SDS011;1788;49.400;11.092;2024-03-08T09:58:08;22.50;;;11.93;;
3547;SDS011;1788;49.400;11.092;2024-03-08T10:00:34;21.77;;;11.07;;
3547;SDS011;1788;49.400;11.092;2024-03-08T10:03:01;20.73;;;11.97;;
3547;SDS011;1788;49.400;11.092;2024-03-08T10:05:27;20.47;;;11.37;;
3547;SDS011;1788;49.400;11.092;2024-03-08T10:07:54;19.10;;;11.60;;
3547;SDS011;1788;49.400;11.092;2024-03-08T10:10:20;24.10;;;11.77;;
3547;SDS011;1788;49.400;11.092;2024-03-08T10:12:47;20.43;;;11.73;;
3547;SDS011;1788;49.400;11.092;2024-03-08T10:15:14;19.83;;;11.83;;
3547;SDS011;1788;49.400;11.092;2024-03-08T10:17:40;18.80;;;11.30;;
3547;SDS011;1788;49.400;11.092;2024-03-08T10:22:33;20.33;;;11.07;;
3547;SDS011;1788;49.400;11.092;2024-03-08T10:25:00;21.50;;;11.67;;
3547;SDS011;1788;49.400;11.092;2024-03-08T10:27:27;17.00;;;10.77;;
3547;SDS011;1788;49.400;11.092;2024-03-08T10:29:55;20.50;;;11.57;;
3547;SDS011;1788;49.400;11.092;2024-03-08T10:32:23;20.63;;;11.07;;
3547;SDS011;1788;49.400;11.092;2024-03-08T10:34:50;16.83;;;9.17;;
3547;SDS011;1788;49.400;11.092;2024-03-08T10:37:18;15.80;;;8.93;;
3547;SDS011;1788;49.400;11.092;2024-03-08T10:39:46;17.13;;;10.23;;
3547;SDS011;1788;49.400;11.092;2024-03-08T10:42:12;19.40;;;10.30;;
3547;SDS011;1788;49.400;11.092;2024-03-08T10:47:10;19.90;;;10.70;;
3547;SDS011;1788;49.400;11.092;2024-03-08T10:49:32;14.90;;;9.00;;
3547;SDS011;1788;49.400;11.092;2024-03-08T10:51:58;17.93;;;9.60;;
3547;SDS011;1788;49.400;11.092;2024-03-08T10:54:25;21.57;;;10.47;;
3547;SDS011;1788;49.400;11.092;2024-03-08T10:56:52;18.93;;;10.27;;
3547;SDS011;1788;49.400;11.092;2024-03-08T10:59:19;15.17;;;8.87;;
3547;SDS011;1788;49.400;11.092;2024-03-08T11:01:46;15.33;;;8.67;;
3547;SDS011;1788;49.400;11.092;2024-03-08T11:04:13;18.43;;;10.17;;
3547;SDS011;1788;49.400;11.092;2024-03-08T11:06:41;15.60;;;8.57;;
3547;SDS011;1788;49.400;11.092;2024-03-08T11:11:34;13.53;;;8.80;;
3547;SDS011;1788;49.400;11.092;2024-03-08T11:14:02;12.60;;;7.80;;
3547;SDS011;1788;49.400;11.092;2024-03-08T11:21:24;16.47;;;9.23;;
3547;SDS011;1788;49.400;11.092;2024-03-08T11:26:19;13.57;;;7.77;;
3547;SDS011;1788;49.400;11.092;2024-03-08T11:28:44;10.60;;;7.07;;
3547;SDS011;1788;49.400;11.092;2024-03-08T11:33:39;10.10;;;6.90;;
3547;SDS011;1788;49.400;11.092;2024-03-08T11:38:33;11.23;;;6.07;;
3547;SDS011;1788;49.400;11.092;2024-03-08T11:41:00;10.43;;;5.93;;
3547;SDS011;1788;49.400;11.092;2024-03-08T11:43:27;7.83;;;4.93;;
3547;SDS011;1788;49.400;11.092;2024-03-08T11:46:07;9.53;;;5.13;;
3547;SDS011;1788;49.400;11.092;2024-03-08T11:48:20;7.50;;;6.00;;
3547;SDS011;1788;49.400;11.092;2024-03-08T11:50:47;8.83;;;5.53;;
3547;SDS011;1788;49.400;11.092;2024-03-08T11:53:14;11.67;;;7.03;;
3547;SDS011;1788;49.400;11.092;2024-03-08T11:55:41;9.80;;;6.23;;
3547;SDS011;1788;49.400;11.092;2024-03-08T11:58:08;11.53;;;6.50;;
3547;SDS011;1788;49.400;11.092;2024-03-08T12:00:35;13.47;;;7.70;;
3547;SDS011;1788;49.400;11.092;2024-03-08T12:03:03;13.77;;;8.10;;
3547;SDS011;1788;49.400;11.092;2024-03-08T12:05:29;13.17;;;8.50;;
3547;SDS011;1788;49.400;11.092;2024-03-08T12:10:23;16.73;;;8.90;;
3547;SDS011;1788;49.400;11.092;2024-03-08T12:12:51;16.13;;;7.80;;
3547;SDS011;1788;49.400;11.092;2024-03-08T12:15:16;12.87;;;7.97;;
3547;SDS011;1788;49.400;11.092;2024-03-08T12:17:43;14.37;;;8.47;;
3547;SDS011;1788;49.400;11.092;2024-03-08T12:22:40;12.33;;;7.90;;
3547;SDS011;1788;49.400;11.092;2024-03-08T12:25:03;13.03;;;8.33;;
3547;SDS011;1788;49.400;11.092;2024-03-08T12:27:29;15.57;;;8.17;;
3547;SDS011;1788;49.400;11.092;2024-03-08T12:29:56;12.90;;;7.77;;
3547;SDS011;1788;49.400;11.092;2024-03-08T12:32:22;13.27;;;7.87;;
3547;SDS011;1788;49.400;11.092;2024-03-08T12:37:16;13.83;;;7.93;;
3547;SDS011;1788;49.400;11.092;2024-03-08T12:39:43;15.33;;;7.90;;
3547;SDS011;1788;49.400;11.092;2024-03-08T12:42:10;11.73;;;7.00;;
3547;SDS011;1788;49.400;11.092;2024-03-08T12:44:37;12.27;;;6.77;;
3547;SDS011;1788;49.400;11.092;2024-03-08T12:47:04;9.53;;;7.67;;
3547;SDS011;1788;49.400;11.092;2024-03-08T12:49:31;12.37;;;7.40;;
3547;SDS011;1788;49.400;11.092;2024-03-08T12:51:58;14.07;;;7.47;;
3547;SDS011;1788;49.400;11.092;2024-03-08T12:54:28;7.87;;;6.07;;
3547;SDS011;1788;49.400;11.092;2024-03-08T12:56:54;10.63;;;7.83;;
3547;SDS011;1788;49.400;11.092;2024-03-08T12:59:21;13.17;;;7.90;;
3547;SDS011;1788;49.400;11.092;2024-03-08T13:01:48;11.03;;;7.60;;
3547;SDS011;1788;49.400;11.092;2024-03-08T13:04:14;10.10;;;7.43;;
3547;SDS011;1788;49.400;11.092;2024-03-08T13:06:41;12.50;;;7.30;;
3547;SDS011;1788;49.400;11.092;2024-03-08T13:09:07;9.87;;;7.63;;
3547;SDS011;1788;49.400;11.092;2024-03-08T13:11:34;12.47;;;7.67;;
3547;SDS011;1788;49.400;11.092;2024-03-08T13:14:01;13.13;;;7.30;;
3547;SDS011;1788;49.400;11.092;2024-03-08T13:16:27;11.00;;;7.47;;
3547;SDS011;1788;49.400;11.092;2024-03-08T13:18:54;13.13;;;8.00;;
3547;SDS011;1788;49.400;11.092;2024-03-08T13:21:21;16.70;;;7.57;;
3547;SDS011;1788;49.400;11.092;2024-03-08T13:23:47;10.13;;;7.50;;
3547;SDS011;1788;49.400;11.092;2024-03-08T13:26:15;11.17;;;7.07;;
3547;SDS011;1788;49.400;11.092;2024-03-08T13:28:43;12.83;;;7.00;;
3547;SDS011;1788;49.400;11.092;2024-03-08T13:31:08;10.97;;;6.70;;
3547;SDS011;1788;49.400;11.092;2024-03-08T13:33:35;10.57;;;6.67;;
3547;SDS011;1788;49.400;11.092;2024-03-08T13:36:02;11.73;;;7.43;;
3547;SDS011;1788;49.400;11.092;2024-03-08T13:38:28;11.97;;;7.87;;
3547;SDS011;1788;49.400;11.092;2024-03-08T13:40:55;10.80;;;7.23;;
3547;SDS011;1788;49.400;11.092;2024-03-08T13:43:22;12.60;;;7.87;;
3547;SDS011;1788;49.400;11.092;2024-03-08T13:45:50;13.17;;;8.13;;
3547;SDS011;1788;49.400;11.092;2024-03-08T13:48:17;12.20;;;7.77;;
3547;SDS011;1788;49.400;11.092;2024-03-08T13:50:44;12.20;;;6.93;;
3547;SDS011;1788;49.400;11.092;2024-03-08T13:53:11;14.20;;;9.23;;
3547;SDS011;1788;49.400;11.092;2024-03-08T13:55:38;10.70;;;7.30;;
3547;SDS011;1788;49.400;11.092;2024-03-08T13:58:05;11.53;;;8.20;;
3547;SDS011;1788;49.400;11.092;2024-03-08T14:00:32;9.97;;;7.50;;
3547;SDS011;1788;49.400;11.092;2024-03-08T14:02:59;11.73;;;7.50;;
3547;SDS011;1788;49.400;11.092;2024-03-08T14:05:26;10.33;;;7.17;;
3547;SDS011;1788;49.400;11.092;2024-03-08T14:07:53;8.97;;;6.63;;
3547;SDS011;1788;49.400;11.092;2024-03-08T14:10:20;14.17;;;7.47;;
3547;SDS011;1788;49.400;11.092;2024-03-08T14:12:47;11.33;;;7.23;;
3547;SDS011;1788;49.400;11.092;2024-03-08T14:15:14;10.97;;;7.27;;
3547;SDS011;1788;49.400;11.092;2024-03-08T14:17:41;9.90;;;7.13;;
3547;SDS011;1788;49.400;11.092;2024-03-08T14:20:08;13.07;;;8.40;;
3547;SDS011;1788;49.400;11.092;2024-03-08T14:22:34;10.13;;;7.67;;
3547;SDS011;1788;49.400;11.092;2024-03-08T14:25:01;11.97;;;8.47;;
3547;SDS011;1788;49.400;11.092;2024-03-08T14:27:28;13.93;;;8.10;;
3547;SDS011;1788;49.400;11.092;2024-03-08T14:29:54;12.80;;;7.97;;
3547;SDS011;1788;49.400;11.092;2024-03-08T14:32:21;16.23;;;8.00;;
3547;SDS011;1788;49.400;11.092;2024-03-08T14:34:47;12.10;;;9.10;;
3547;SDS011;1788;49.400;11.092;2024-03-08T14:37:14;14.87;;;9.20;;
3547;SDS011;1788;49.400;11.092;2024-03-08T14:39:42;14.53;;;8.80;;
3547;SDS011;1788;49.400;11.092;2024-03-08T14:42:09;11.03;;;8.00;;
3547;SDS011;1788;49.400;11.092;2024-03-08T14:44:37;15.03;;;9.07;;
3547;SDS011;1788;49.400;11.092;2024-03-08T14:47:03;9.97;;;8.00;;
3547;SDS011;1788;49.400;11.092;2024-03-08T14:49:30;13.67;;;9.00;;
3547;SDS011;1788;49.400;11.092;2024-03-08T14:51:57;10.20;;;7.50;;
3547;SDS011;1788;49.400;11.092;2024-03-08T14:54:24;11.53;;;6.97;;
3547;SDS011;1788;49.400;11.092;2024-03-08T14:56:51;11.70;;;7.17;;
3547;SDS011;1788;49.400;11.092;2024-03-08T14:59:18;13.10;;;7.43;;
3547;SDS011;1788;49.400;11.092;2024-03-08T15:01:44;14.80;;;7.80;;
3547;SDS011;1788;49.400;11.092;2024-03-08T15:04:11;11.90;;;7.10;;
3547;SDS011;1788;49.400;11.092;2024-03-08T15:06:37;12.70;;;7.07;;
3547;SDS011;1788;49.400;11.092;2024-03-08T15:09:04;11.50;;;7.57;;